createdAt,value
2019-01-27T00:00:30.682Z,1.73
2019-01-27T00:02:35.052Z,1.60
2019-01-27T00:04:39.787Z,1.90
2019-01-27T00:06:44.191Z,1.20
2019-01-27T00:08:48.663Z,1.13
2019-01-27T00:10:53.083Z,1.20
2019-01-27T00:12:57.598Z,1.73
2019-01-27T00:15:02.029Z,1.50
2019-01-27T00:17:06.434Z,1.43
2019-01-27T00:19:10.790Z,1.30
2019-01-27T00:21:15.262Z,1.50
2019-01-27T00:23:19.632Z,1.63
2019-01-27T00:25:24.147Z,1.50
2019-01-27T00:27:28.694Z,1.67
2019-01-27T00:29:33.066Z,1.17
2019-01-27T00:31:37.541Z,1.17
2019-01-27T00:33:41.918Z,1.93
2019-01-27T00:35:46.333Z,1.10
2019-01-27T00:37:50.746Z,1.93
2019-01-27T00:39:55.179Z,1.10
2019-01-27T00:41:59.686Z,1.30
2019-01-27T00:44:04.162Z,1.80
2019-01-27T00:46:08.631Z,1.53
2019-01-27T00:48:13.010Z,2.20
2019-01-27T00:50:17.533Z,2.60
2019-01-27T00:52:21.939Z,2.10
2019-01-27T00:54:26.398Z,1.63
2019-01-27T00:56:31.570Z,1.80
2019-01-27T00:58:36.014Z,1.40
2019-01-27T01:00:40.425Z,1.33
2019-01-27T01:02:44.836Z,2.33
2019-01-27T01:04:49.324Z,2.20
2019-01-27T01:06:53.678Z,1.90
2019-01-27T01:08:58.017Z,1.33
2019-01-27T01:11:02.494Z,1.90
2019-01-27T01:13:07.157Z,1.70
2019-01-27T01:15:11.787Z,1.73
2019-01-27T01:17:16.199Z,1.37
2019-01-27T01:19:20.584Z,1.70
2019-01-27T01:21:25.031Z,1.00
2019-01-27T01:23:29.494Z,1.30
2019-01-27T01:25:33.891Z,1.53
2019-01-27T01:27:38.373Z,1.20
2019-01-27T01:29:42.750Z,1.67
2019-01-27T01:31:47.109Z,0.80
2019-01-27T01:33:51.458Z,1.03
2019-01-27T01:35:55.872Z,1.27
2019-01-27T01:38:00.330Z,1.40
2019-01-27T01:40:05.631Z,1.10
2019-01-27T01:42:10.034Z,1.27
2019-01-27T01:44:14.375Z,1.20
2019-01-27T01:46:18.793Z,1.20
2019-01-27T01:48:23.228Z,0.90
2019-01-27T01:50:27.634Z,0.90
2019-01-27T01:52:32.049Z,1.07
2019-01-27T01:54:36.417Z,1.20
2019-01-27T01:56:40.802Z,1.00
2019-01-27T01:58:45.135Z,1.00
2019-01-27T02:00:49.523Z,1.10
2019-01-27T02:02:54.018Z,1.17
2019-01-27T02:04:58.411Z,0.80
2019-01-27T02:07:02.786Z,1.03
2019-01-27T02:09:10.664Z,1.23
2019-01-27T02:11:15.061Z,1.10
2019-01-27T02:13:19.436Z,0.97
2019-01-27T02:16:14.019Z,1.10
2019-01-27T02:18:18.553Z,1.10
2019-01-27T02:20:22.922Z,0.90
2019-01-27T02:22:27.280Z,0.90
2019-01-27T02:24:31.789Z,0.80
2019-01-27T02:26:36.217Z,0.70
2019-01-27T02:28:40.581Z,1.00
2019-01-27T02:30:45.019Z,0.90
2019-01-27T02:32:49.463Z,0.80
2019-01-27T02:34:53.822Z,1.20
2019-01-27T02:36:58.228Z,0.87
2019-01-27T02:39:02.611Z,0.70
2019-01-27T02:41:07.135Z,0.80
2019-01-27T02:43:11.523Z,0.77
2019-01-27T02:45:16.582Z,0.80
2019-01-27T02:47:20.952Z,0.60
2019-01-27T02:49:25.365Z,1.07
2019-01-27T02:51:29.740Z,0.80
2019-01-27T02:53:34.250Z,0.90
2019-01-27T02:55:38.638Z,0.70
2019-01-27T02:57:43.072Z,1.00
2019-01-27T02:59:47.455Z,0.90
2019-01-27T03:01:51.824Z,1.57
2019-01-27T03:03:56.177Z,1.00
2019-01-27T03:07:04.426Z,0.97
2019-01-27T03:09:14.649Z,0.80
2019-01-27T03:11:19.090Z,0.80
2019-01-27T03:13:23.445Z,0.87
2019-01-27T03:15:27.826Z,0.70
2019-01-27T03:17:32.344Z,0.87
2019-01-27T03:19:36.786Z,0.70
2019-01-27T03:21:41.135Z,0.70
2019-01-27T03:23:45.550Z,0.90
2019-01-27T03:25:49.968Z,1.10
2019-01-27T03:27:54.329Z,0.70
2019-01-27T03:29:58.750Z,0.80
2019-01-27T03:32:03.100Z,0.80
2019-01-27T03:34:07.486Z,0.90
2019-01-27T03:36:11.967Z,0.70
2019-01-27T03:38:16.321Z,0.80
2019-01-27T03:40:20.749Z,0.83
2019-01-27T03:42:25.161Z,0.87
2019-01-27T03:44:29.538Z,0.70
2019-01-27T03:46:33.974Z,0.63
2019-01-27T03:48:38.384Z,0.73
2019-01-27T03:50:42.725Z,0.90
2019-01-27T03:52:47.237Z,1.27
2019-01-27T03:54:51.601Z,0.70
2019-01-27T03:56:55.981Z,0.77
2019-01-27T03:59:00.389Z,1.23
2019-01-27T04:01:05.174Z,0.90
2019-01-27T04:03:09.579Z,0.70
2019-01-27T04:05:14.097Z,0.67
2019-01-27T04:07:18.513Z,0.70
2019-01-27T04:09:22.876Z,0.70
2019-01-27T04:11:27.270Z,0.87
2019-01-27T04:13:31.646Z,0.60
2019-01-27T04:15:36.215Z,0.70
2019-01-27T04:17:40.673Z,0.63
2019-01-27T04:19:45.034Z,0.63
2019-01-27T04:21:49.466Z,0.60
2019-01-27T04:23:53.909Z,0.60
2019-01-27T04:25:58.271Z,0.60
2019-01-27T04:28:02.665Z,0.70
2019-01-27T04:30:10.291Z,0.77
2019-01-27T04:32:14.756Z,0.60
2019-01-27T04:34:19.176Z,0.47
2019-01-27T04:36:23.558Z,0.80
2019-01-27T04:38:27.927Z,0.60
2019-01-27T04:40:32.414Z,0.77
2019-01-27T04:42:36.831Z,0.50
2019-01-27T04:44:41.178Z,0.80
2019-01-27T04:46:45.619Z,0.60
2019-01-27T04:48:50.017Z,0.73
2019-01-27T04:50:54.374Z,0.60
2019-01-27T04:52:58.841Z,0.60
2019-01-27T04:55:03.318Z,0.70
2019-01-27T04:57:07.757Z,0.60
2019-01-27T04:59:12.097Z,0.70
2019-01-27T05:01:16.500Z,0.70
2019-01-27T05:03:28.004Z,0.70
2019-01-27T05:05:32.416Z,0.80
2019-01-27T05:07:36.869Z,0.80
2019-01-27T05:09:41.241Z,0.60
2019-01-27T05:11:45.677Z,0.60
2019-01-27T05:13:50.094Z,0.70
2019-01-27T05:15:54.619Z,0.63
2019-01-27T05:17:58.967Z,0.70
2019-01-27T05:20:03.421Z,0.60
2019-01-27T05:22:07.830Z,0.60
2019-01-27T05:24:12.221Z,0.60
2019-01-27T05:26:16.646Z,0.70
2019-01-27T05:28:21.020Z,0.60
2019-01-27T05:30:25.772Z,0.70
2019-01-27T05:32:30.156Z,0.60
2019-01-27T05:34:34.514Z,0.60
2019-01-27T05:36:38.935Z,0.60
2019-01-27T05:38:43.396Z,0.60
2019-01-27T05:40:47.789Z,0.97
2019-01-27T05:42:53.001Z,0.53
2019-01-27T05:44:57.374Z,0.60
2019-01-27T05:47:01.724Z,0.63
2019-01-27T05:49:06.116Z,0.57
2019-01-27T05:51:10.470Z,0.70
2019-01-27T05:53:14.809Z,0.50
2019-01-27T05:55:19.400Z,0.70
2019-01-27T05:57:23.829Z,0.77
2019-01-27T05:59:28.229Z,0.60
2019-01-27T06:01:32.666Z,0.60
2019-01-27T06:03:37.040Z,0.73
2019-01-27T06:05:41.439Z,0.60
2019-01-27T06:07:45.836Z,0.60
2019-01-27T06:09:50.245Z,0.60
2019-01-27T06:11:54.593Z,0.60
2019-01-27T06:13:59.025Z,1.10
2019-01-27T06:16:03.430Z,0.80
2019-01-27T06:18:07.947Z,0.80
2019-01-27T06:20:13.251Z,0.60
2019-01-27T06:22:17.669Z,0.60
2019-01-27T06:24:22.067Z,0.70
2019-01-27T06:26:26.541Z,0.50
2019-01-27T06:28:30.879Z,0.70
2019-01-27T06:30:35.311Z,0.70
2019-01-27T06:32:44.853Z,0.50
2019-01-27T06:34:50.215Z,0.60
2019-01-27T06:36:54.636Z,0.70
2019-01-27T06:38:59.056Z,0.60
2019-01-27T06:41:03.477Z,0.70
2019-01-27T06:43:07.965Z,0.63
2019-01-27T06:45:12.409Z,0.70
2019-01-27T06:47:16.809Z,0.70
2019-01-27T06:49:21.210Z,0.80
2019-01-27T06:51:25.613Z,0.77
2019-01-27T06:53:30.088Z,0.80
2019-01-27T06:55:34.422Z,0.60
2019-01-27T06:57:38.913Z,0.70
2019-01-27T06:59:49.427Z,0.70
2019-01-27T07:02:05.863Z,0.67
2019-01-27T07:04:18.560Z,0.57
2019-01-27T07:06:28.006Z,0.60
2019-01-27T07:08:43.454Z,0.93
2019-01-27T07:10:53.783Z,0.60
2019-01-27T07:13:03.395Z,0.60
2019-01-27T07:15:21.327Z,0.73
2019-01-27T07:17:31.231Z,0.57
2019-01-27T07:20:40.957Z,0.60
2019-01-27T07:24:56.317Z,0.60
2019-01-27T07:27:06.054Z,0.80
2019-01-27T07:29:16.588Z,0.60
2019-01-27T07:31:26.383Z,0.60
2019-01-27T07:33:52.220Z,0.80
2019-01-27T07:36:01.585Z,0.93
2019-01-27T07:38:11.178Z,0.60
2019-01-27T07:40:21.811Z,0.50
2019-01-27T07:42:37.492Z,0.70
2019-01-27T07:44:53.939Z,0.60
2019-01-27T07:47:08.453Z,0.80
2019-01-27T07:49:17.933Z,0.50
2019-01-27T07:52:32.963Z,0.47
2019-01-27T07:54:43.084Z,0.70
2019-01-27T07:58:54.885Z,0.40
2019-01-27T08:01:08.385Z,0.60
2019-01-27T08:03:18.025Z,0.53
2019-01-27T08:05:29.392Z,0.40
2019-01-27T08:07:39.073Z,0.50
2019-01-27T08:09:48.637Z,0.50
2019-01-27T08:11:58.766Z,0.50
2019-01-27T08:14:08.403Z,0.70
2019-01-27T08:16:24.856Z,0.60
2019-01-27T08:18:34.441Z,0.50
2019-01-27T08:20:45.970Z,0.60
2019-01-27T08:22:58.309Z,0.60
2019-01-27T08:25:09.760Z,0.70
2019-01-27T08:27:52.662Z,0.60
2019-01-27T08:30:04.086Z,0.60
2019-01-27T08:32:13.528Z,0.57
2019-01-27T08:34:38.321Z,0.50
2019-01-27T08:36:48.983Z,1.10
2019-01-27T08:40:02.115Z,0.63
2019-01-27T08:42:11.729Z,0.70
2019-01-27T08:44:26.234Z,0.77
2019-01-27T08:46:35.821Z,0.67
2019-01-27T08:48:40.183Z,0.60
2019-01-27T08:50:44.541Z,0.50
2019-01-27T08:52:49.006Z,0.63
2019-01-27T08:54:53.384Z,0.70
2019-01-27T08:56:57.798Z,0.70
2019-01-27T08:59:02.230Z,0.73
2019-01-27T09:02:09.467Z,0.63
2019-01-27T09:04:35.901Z,0.60
2019-01-27T09:06:44.508Z,1.43
2019-01-27T09:09:26.449Z,0.90
